Palmerston North, New Zealand
Current Conditions -  °F | °C
As of 1:30 AM on Saturday 29 Nov 2014 (Local Time) from NZWN Reporting Station
Rain Showers Rain Showers  
Wind Chill: 50°   Ceiling: 2700
Heat Index: 50°   Visibility: 6mi
Dew Point: 46°   Wind: 6mph
Humidity: 87%   Direction: 340°NNW
Pressure: 29.71"   Gusts: NA
Location:  40.36°S, 175.61°E
Report Text: NZWN 281330Z AUTO 34005KT 9999 -SHRA SCT019/// BKN027///OVC037/// 10/08 Q1006 REDZ NOSIG
Loading
Personal Weather Stations






























Interactive Weather Map New forecast layout! Learn more

10-Day Weather Forecast

Advertisements
Track Severe Weather on mobile